Time;durP1;ratioP1;P1;durP2;ratioP2;P2;SDS_P1;SDS_P2;PMS_P1;PMS_P2;Temp;Humidity;BMP_temperature;BMP_pressure;BME280_temperature;BME280_humidity;BME280_pressure;Samples;Min_cycle;Max_cycle;Signal;HPM_P1;HPM_P2
2020/12/23 00:00:07;;;;;;;144.60;81.40;;;;;;;6.59;68.07;95816.75;5049884;28;20251;-66
2020/12/23 00:02:37;;;;;;;144.15;83.53;;;;;;;6.57;68.35;95810.97;5050284;28;20204;-62
2020/12/23 00:05:08;;;;;;;153.55;86.43;;;;;;;6.57;68.25;95812.78;5049542;28;20262;-66
2020/12/23 00:07:36;;;;;;;165.93;96.32;;;;;;;6.53;68.66;95814.97;5049941;28;20279;-64
2020/12/23 00:10:06;;;;;;;188.57;107.60;;;;;;;6.48;68.34;95803.63;5049499;28;20220;-64
2020/12/23 00:12:33;;;;;;;168.05;94.35;;;;;;;6.15;69.45;95816.75;5049912;28;20193;-64
2020/12/23 00:15:00;;;;;;;156.85;90.45;;;;;;;6.18;69.41;95816.34;5049734;28;20176;-66
2020/12/23 00:17:26;;;;;;;160.77;88.97;;;;;;;6.27;69.36;95817.72;5049304;28;20189;-64
2020/12/23 00:19:53;;;;;;;149.10;84.53;;;;;;;6.34;69.23;95823.69;5049406;28;20242;-66
2020/12/23 00:22:19;;;;;;;149.40;84.97;;;;;;;6.30;69.06;95827.69;5050079;28;20307;-64
2020/12/23 00:24:46;;;;;;;152.13;83.47;;;;;;;6.39;68.77;95825.66;5049427;28;20283;-67
2020/12/23 00:27:13;;;;;;;166.20;90.72;;;;;;;6.46;68.58;95823.84;5050069;28;20207;-64
2020/12/23 00:29:40;;;;;;;157.07;83.07;;;;;;;6.30;69.16;95812.09;5048870;28;20687;-65
2020/12/23 00:32:06;;;;;;;178.63;93.28;;;;;;;6.31;68.89;95821.50;5049982;28;20275;-67
2020/12/23 00:34:33;;;;;;;163.93;88.22;;;;;;;6.39;69.05;95826.47;5048986;28;20239;-66
2020/12/23 00:37:01;;;;;;;161.90;88.15;;;;;;;6.42;68.73;95831.28;5049500;28;20212;-64
2020/12/23 00:39:27;;;;;;;174.45;91.75;;;;;;;6.35;68.92;95812.25;5049176;28;20200;-64
2020/12/23 00:41:54;;;;;;;207.50;103.35;;;;;;;6.37;68.98;95823.28;5049736;28;20266;-62
2020/12/23 00:44:20;;;;;;;199.43;104.30;;;;;;;6.30;69.33;95827.69;5048137;28;21025;-62
2020/12/23 00:46:47;;;;;;;215.93;111.43;;;;;;;6.50;69.16;95825.81;5049872;28;20675;-63
2020/12/23 00:49:13;;;;;;;223.60;113.53;;;;;;;6.47;69.28;95823.66;5050990;28;20200;-62
2020/12/23 00:51:40;;;;;;;224.25;117.63;;;;;;;6.54;68.64;95821.00;5049173;28;20259;-64
2020/12/23 00:54:06;;;;;;;227.05;116.45;;;;;;;6.40;68.79;95814.25;5047851;28;20198;-64
2020/12/23 00:56:37;;;;;;;222.57;116.57;;;;;;;6.34;68.72;95802.06;5064620;28;20196;-65
2020/12/23 00:59:03;;;;;;;232.73;120.07;;;;;;;6.42;68.75;95818.25;5048847;28;20682;-62
2020/12/23 01:01:30;;;;;;;222.90;117.20;;;;;;;6.43;69.38;95811.22;5050080;28;20197;-65
2020/12/23 01:03:56;;;;;;;254.75;132.75;;;;;;;6.45;68.93;95815.25;5049355;28;20204;-66
2020/12/23 01:06:23;;;;;;;276.63;139.05;;;;;;;6.45;68.58;95810.03;5049206;28;20238;-68
2020/12/23 01:08:49;;;;;;;273.13;141.43;;;;;;;6.51;68.55;95808.41;5048827;28;20646;-65
2020/12/23 01:11:16;;;;;;;270.35;137.60;;;;;;;6.33;69.05;95800.47;5048045;28;20269;-66
2020/12/23 01:13:43;;;;;;;265.25;135.30;;;;;;;6.25;69.42;95798.09;5048728;28;20196;-64
2020/12/23 01:16:12;;;;;;;252.27;131.10;;;;;;;6.30;69.22;95806.88;5049397;28;20204;-63
2020/12/23 01:18:39;;;;;;;259.95;136.65;;;;;;;6.19;69.54;95810.13;5047755;28;20631;-66
2020/12/23 01:21:08;;;;;;;258.13;135.32;;;;;;;6.23;69.52;95813.91;5053531;28;20200;-64
2020/12/23 01:23:34;;;;;;;262.45;134.82;;;;;;;6.29;69.38;95815.72;5049449;28;20203;-64
2020/12/23 01:26:00;;;;;;;253.75;131.07;;;;;;;6.10;69.86;95808.75;5049195;28;20195;-63
2020/12/23 01:28:27;;;;;;;252.38;129.60;;;;;;;6.07;69.87;95811.78;5049037;28;20192;-64
2020/12/23 01:30:54;;;;;;;249.25;127.45;;;;;;;6.11;69.78;95807.78;5048443;28;20212;-67
2020/12/23 01:33:20;;;;;;;242.63;124.93;;;;;;;6.02;70.26;95803.78;5048773;28;20224;-62
2020/12/23 01:35:46;;;;;;;243.43;125.35;;;;;;;6.19;69.80;95804.91;5048207;28;21263;-61
2020/12/23 01:38:13;;;;;;;243.45;119.78;;;;;;;6.21;69.39;95797.72;5048906;28;20487;-66
2020/12/23 01:40:39;;;;;;;248.82;118.57;;;;;;;6.22;69.64;95794.13;5048502;28;20736;-67
2020/12/23 01:43:09;;;;;;;237.98;118.32;;;;;;;6.00;69.60;95785.75;5049097;28;20201;-64
2020/12/23 01:45:36;;;;;;;263.27;127.55;;;;;;;5.97;70.04;95790.56;5048353;28;20201;-64
2020/12/23 01:48:14;;;;;;;265.13;127.70;;;;;;;5.93;70.14;95789.41;5049655;28;20667;-62
2020/12/23 01:50:41;;;;;;;240.75;119.72;;;;;;;5.94;69.95;95793.59;5048611;28;20228;-64
2020/12/23 01:53:08;;;;;;;242.90;119.70;;;;;;;5.93;70.26;95789.41;5048634;28;20632;-65
2020/12/23 01:55:34;;;;;;;247.70;116.95;;;;;;;5.94;70.11;95780.59;5048443;28;20202;-65
2020/12/23 01:58:01;;;;;;;245.15;113.45;;;;;;;5.93;70.10;95774.59;5048865;28;20211;-67
2020/12/23 02:00:29;;;;;;;173.82;86.53;;;;;;;5.93;69.96;95763.41;5048256;28;20197;-63
2020/12/23 02:02:58;;;;;;;143.68;70.72;;;;;;;5.71;70.93;95764.63;5048973;28;20211;-66
2020/12/23 02:05:24;;;;;;;146.55;75.50;;;;;;;5.81;70.50;95770.19;5051117;28;20185;-65
2020/12/23 02:07:50;;;;;;;143.40;68.78;;;;;;;5.90;70.51;95756.81;5052973;28;20185;-64
2020/12/23 02:10:18;;;;;;;135.00;66.25;;;;;;;5.90;70.21;95756.00;5052221;28;20250;-65
2020/12/23 02:12:44;;;;;;;127.78;64.07;;;;;;;5.88;70.57;95758.00;5052505;28;20188;-67
2020/12/23 02:15:14;;;;;;;139.20;67.00;;;;;;;5.96;70.75;95762.97;5051852;28;20203;-66
2020/12/23 02:17:41;;;;;;;129.32;64.15;;;;;;;5.89;70.48;95751.81;5052335;28;20239;-63
2020/12/23 02:20:10;;;;;;;122.45;62.55;;;;;;;5.94;70.63;95760.59;5051900;28;20201;-65
2020/12/23 02:22:38;;;;;;;130.23;60.78;;;;;;;5.91;70.84;95770.59;5053747;28;20287;-66
2020/12/23 02:25:06;;;;;;;114.43;58.10;;;;;;;5.70;71.35;95763.03;5051542;28;20275;-64
2020/12/23 02:27:33;;;;;;;115.85;57.47;;;;;;;5.74;71.49;95759.81;5052556;28;20219;-62
2020/12/23 02:30:00;;;;;;;119.57;59.90;;;;;;;5.92;70.90;95761.78;5051646;28;20220;-65
2020/12/23 02:32:27;;;;;;;114.70;59.13;;;;;;;5.95;70.99;95753.56;5052258;28;20205;-65
2020/12/23 02:34:54;;;;;;;124.22;58.45;;;;;;;5.94;70.80;95749.38;5051138;28;20240;-63
2020/12/23 02:37:21;;;;;;;120.80;59.80;;;;;;;6.03;70.55;95745.53;5051923;28;20695;-68
2020/12/23 02:39:50;;;;;;;112.95;57.78;;;;;;;6.06;70.28;95752.94;5051296;28;20693;-64
2020/12/23 02:42:18;;;;;;;111.57;57.53;;;;;;;5.91;71.33;95745.38;5052532;28;20192;-67
2020/12/23 02:44:45;;;;;;;115.75;58.53;;;;;;;6.03;70.19;95741.16;5051389;28;20303;-67
2020/12/23 02:47:13;;;;;;;117.38;59.17;;;;;;;5.91;70.49;95734.19;5052335;28;20223;-64
2020/12/23 02:49:41;;;;;;;123.85;60.65;;;;;;;5.95;70.46;95735.34;5051372;28;20201;-65
2020/12/23 02:52:09;;;;;;;116.88;59.80;;;;;;;5.95;70.20;95748.38;5051770;28;20228;-63
2020/12/23 02:54:36;;;;;;;122.05;60.85;;;;;;;5.89;70.58;95749.22;5051111;28;20193;-66
2020/12/23 02:57:06;;;;;;;117.07;58.33;;;;;;;5.42;72.28;95749.50;5052190;28;20804;-65
2020/12/23 02:59:32;;;;;;;117.97;60.97;;;;;;;5.62;72.49;95755.47;5051082;28;20295;-68
2020/12/23 03:01:59;;;;;;;114.75;58.05;;;;;;;5.79;71.58;95746.19;5051317;28;20228;-65
2020/12/23 03:04:26;;;;;;;121.97;59.00;;;;;;;5.93;71.44;95742.59;5051029;28;20294;-66
2020/12/23 03:06:53;;;;;;;114.97;58.63;;;;;;;6.02;70.94;95746.56;5051369;28;20542;-67
2020/12/23 03:09:20;;;;;;;119.22;59.22;;;;;;;5.87;71.07;95736.41;5051043;28;20243;-64
2020/12/23 03:11:46;;;;;;;111.82;58.78;;;;;;;5.94;70.98;95754.59;5054367;28;20220;-66
2020/12/23 03:14:13;;;;;;;123.47;60.05;;;;;;;5.99;71.17;95749.56;5054252;28;20375;-67
2020/12/23 03:16:40;;;;;;;118.20;59.55;;;;;;;6.14;70.44;95747.50;5050741;28;20284;-64
2020/12/23 03:19:07;;;;;;;117.70;59.55;;;;;;;6.04;70.62;95753.13;5050032;28;20682;-64
2020/12/23 03:21:34;;;;;;;119.18;61.42;;;;;;;6.00;70.64;95748.56;5051609;28;20203;-62
2020/12/23 03:24:00;;;;;;;119.97;60.78;;;;;;;6.00;71.20;95751.16;5051910;28;20671;-62
2020/12/23 03:26:26;;;;;;;115.45;60.65;;;;;;;5.96;70.80;95760.38;5054336;28;20199;-65
2020/12/23 03:28:53;;;;;;;118.45;58.95;;;;;;;5.98;70.89;95753.97;5054390;28;20689;-65
2020/12/23 03:31:20;;;;;;;116.55;60.75;;;;;;;6.02;70.96;95754.38;5053360;28;20315;-63
2020/12/23 03:33:47;;;;;;;114.20;60.28;;;;;;;6.05;70.74;95756.53;5049862;28;20236;-64
2020/12/23 03:36:14;;;;;;;119.05;60.10;;;;;;;6.04;71.41;95757.53;5051357;28;20212;-62
2020/12/23 03:38:40;;;;;;;111.78;55.90;;;;;;;6.00;71.53;95756.38;5050185;28;20200;-65
2020/12/23 03:41:07;;;;;;;118.68;58.67;;;;;;;6.10;70.95;95764.53;5050453;28;20196;-66
2020/12/23 03:43:33;;;;;;;111.70;57.15;;;;;;;6.19;70.92;95773.69;5050276;28;20196;-68
2020/12/23 03:46:00;;;;;;;117.45;58.67;;;;;;;6.07;70.72;95770.16;5050688;28;20207;-62
2020/12/23 03:48:26;;;;;;;111.72;59.53;;;;;;;6.14;71.26;95771.72;5051228;28;20203;-63
2020/12/23 03:50:53;;;;;;;115.75;58.35;;;;;;;6.15;70.64;95772.50;5050685;28;20764;-64
2020/12/23 03:53:20;;;;;;;115.95;59.63;;;;;;;5.99;71.07;95759.97;5051710;28;20249;-61
2020/12/23 03:55:47;;;;;;;126.05;59.40;;;;;;;5.90;71.29;95758.59;5051128;28;20204;-64
2020/12/23 03:58:13;;;;;;;107.70;58.22;;;;;;;6.14;70.82;95781.31;5050495;28;20205;-65
2020/12/23 04:00:40;;;;;;;109.13;57.92;;;;;;;6.18;71.03;95774.72;5050005;28;20692;-64
2020/12/23 04:03:06;;;;;;;114.40;57.53;;;;;;;6.27;70.46;95776.06;5050256;28;20199;-64
2020/12/23 04:05:37;;;;;;;118.15;58.00;;;;;;;6.24;70.61;95760.84;5049807;28;20283;-68
2020/12/23 04:08:05;;;;;;;105.15;55.85;;;;;;;6.33;70.29;95780.47;5050364;28;20200;-64
2020/12/23 04:10:31;;;;;;;110.32;57.35;;;;;;;6.29;70.31;95768.88;5049640;28;20648;-66
2020/12/23 04:12:58;;;;;;;112.65;56.28;;;;;;;6.29;70.30;95774.06;5050206;28;20638;-65
2020/12/23 04:15:24;;;;;;;109.90;54.17;;;;;;;6.23;70.86;95768.88;5049904;28;20204;-63
2020/12/23 04:17:51;;;;;;;105.18;54.00;;;;;;;6.23;70.71;95763.66;5050108;28;20667;-65
2020/12/23 04:20:18;;;;;;;109.32;54.15;;;;;;;6.27;70.53;95764.84;5064734;28;20589;-65
2020/12/23 04:22:45;;;;;;;104.13;53.72;;;;;;;6.30;70.48;95765.25;5049932;28;20272;-67
2020/12/23 04:25:11;;;;;;;104.60;54.70;;;;;;;6.33;70.26;95770.06;5049528;28;20211;-66
2020/12/23 04:27:38;;;;;;;106.15;55.58;;;;;;;6.15;70.60;95755.09;5049572;28;20726;-69
2020/12/23 04:30:07;;;;;;;104.50;54.50;;;;;;;6.23;70.45;95764.47;5049179;28;20632;-65
2020/12/23 04:32:35;;;;;;;109.03;53.63;;;;;;;6.25;70.23;95772.88;5049760;28;20273;-65
2020/12/23 04:35:03;;;;;;;110.50;54.15;;;;;;;6.28;70.36;95772.44;5049367;28;20290;-63
2020/12/23 04:37:31;;;;;;;108.35;55.03;;;;;;;6.24;70.47;95776.47;5050115;28;20275;-64
2020/12/23 04:39:58;;;;;;;109.82;54.97;;;;;;;6.03;70.30;95742.94;5049545;28;20204;-65
2020/12/23 04:42:25;;;;;;;103.28;52.92;;;;;;;6.35;70.41;95782.84;5049716;28;20269;-69
2020/12/23 04:44:51;;;;;;;102.63;51.47;;;;;;;6.29;70.27;95789.69;5048892;28;20219;-64
2020/12/23 04:47:24;;;;;;;100.10;50.53;;;;;;;6.34;70.51;95776.84;5049539;28;20223;-66
2020/12/23 04:49:55;;;;;;;95.72;51.08;;;;;;;6.17;70.58;95770.50;5048839;28;20229;-66
2020/12/23 04:52:34;;;;;;;93.65;48.50;;;;;;;6.10;70.71;95774.94;5049574;28;20212;-66
2020/12/23 04:55:04;;;;;;;92.85;48.75;;;;;;;6.18;70.45;95766.91;5049022;28;20210;-66
2020/12/23 04:57:31;;;;;;;96.07;50.15;;;;;;;6.28;70.22;95756.84;5049819;28;20220;-62
2020/12/23 04:59:57;;;;;;;96.13;49.85;;;;;;;6.35;70.40;95767.22;5048872;28;20670;-66
2020/12/23 05:02:26;;;;;;;94.55;49.50;;;;;;;6.38;70.13;95765.00;5050306;28;20192;-61
2020/12/23 05:04:54;;;;;;;104.78;49.20;;;;;;;6.31;70.16;95766.03;5046199;28;20200;-65
2020/12/23 05:07:21;;;;;;;92.65;49.05;;;;;;;6.36;70.05;95769.63;5049457;28;20254;-65
2020/12/23 05:09:49;;;;;;;88.40;46.40;;;;;;;6.39;69.97;95778.81;5048810;28;20716;-64
2020/12/23 05:12:19;;;;;;;91.07;47.70;;;;;;;6.36;70.49;95774.03;5049079;28;20207;-65
2020/12/23 05:14:47;;;;;;;98.25;49.65;;;;;;;6.41;70.30;95782.81;5048566;28;20200;-64
2020/12/23 05:17:15;;;;;;;87.13;46.72;;;;;;;6.32;70.24;95784.06;5048929;28;20204;-64
2020/12/23 05:19:43;;;;;;;87.63;46.53;;;;;;;6.33;69.89;95772.66;5048073;28;20617;-64
2020/12/23 05:22:12;;;;;;;91.88;46.05;;;;;;;6.43;69.58;95770.38;5049296;28;20298;-66
2020/12/23 05:24:38;;;;;;;94.30;45.33;;;;;;;6.33;69.67;95775.25;5049003;28;20585;-67
2020/12/23 05:27:06;;;;;;;91.32;47.20;;;;;;;6.39;69.71;95777.00;5049478;28;20200;-67
2020/12/23 05:29:34;;;;;;;93.30;46.35;;;;;;;6.38;69.76;95772.81;5048222;28;20215;-64
2020/12/23 05:32:04;;;;;;;90.25;46.50;;;;;;;6.44;69.86;95771.97;5048659;28;20228;-67
2020/12/23 05:34:33;;;;;;;92.93;46.72;;;;;;;6.42;70.03;95779.22;5047930;28;20312;-68
2020/12/23 05:37:01;;;;;;;92.80;45.28;;;;;;;6.43;69.84;95778.19;5048904;28;20214;-65
2020/12/23 05:39:32;;;;;;;86.57;46.33;;;;;;;6.47;70.17;95787.19;5049437;28;20705;-64
2020/12/23 05:42:00;;;;;;;88.32;45.33;;;;;;;6.45;70.29;95778.78;5052622;28;20231;-64
2020/12/23 05:44:28;;;;;;;87.60;43.95;;;;;;;6.50;70.29;95781.56;5052084;28;20192;-65
2020/12/23 05:46:55;;;;;;;91.15;45.58;;;;;;;6.61;69.90;95782.69;5052337;28;20184;-64
2020/12/23 05:49:24;;;;;;;82.47;45.88;;;;;;;6.64;70.00;95788.28;5051778;28;20196;-65
2020/12/23 05:51:51;;;;;;;85.53;44.33;;;;;;;6.66;69.08;95795.91;5052393;28;20216;-62
2020/12/23 05:54:20;;;;;;;90.15;44.60;;;;;;;6.55;69.97;95788.75;5052417;28;20212;-67
2020/12/23 05:56:51;;;;;;;90.95;46.17;;;;;;;6.47;70.32;95799.41;5052087;28;20185;-63
2020/12/23 05:59:18;;;;;;;89.65;44.70;;;;;;;6.48;69.81;95791.38;5052158;28;20279;-65
2020/12/23 06:01:44;;;;;;;84.32;42.85;;;;;;;6.46;69.64;95779.59;5052575;28;20219;-61
2020/12/23 06:04:15;;;;;;;88.40;44.50;;;;;;;6.61;69.46;95793.13;5051724;28;20641;-63
2020/12/23 06:07:04;;;;;;;83.28;43.63;;;;;;;6.57;69.98;95803.16;5052163;28;20197;-63
2020/12/23 06:09:36;;;;;;;85.18;44.03;;;;;;;6.55;70.44;95805.16;5051754;28;20227;-65
2020/12/23 06:12:19;;;;;;;86.53;44.15;;;;;;;6.60;69.78;95802.75;5052219;28;20224;-66
2020/12/23 06:14:57;;;;;;;83.70;41.25;;;;;;;6.55;69.50;95810.38;5051957;28;20207;-65
2020/12/23 06:17:25;;;;;;;80.75;42.05;;;;;;;6.62;69.78;95811.16;5051665;28;20308;-64
2020/12/23 06:19:57;;;;;;;80.88;43.97;;;;;;;6.48;70.61;95814.81;5051387;28;20199;-67
2020/12/23 06:22:26;;;;;;;82.88;42.85;;;;;;;6.52;70.57;95821.22;5052045;28;20258;-62
2020/12/23 06:24:53;;;;;;;81.25;42.05;;;;;;;6.59;70.41;95821.97;5051353;28;20200;-64
2020/12/23 06:27:20;;;;;;;75.97;42.30;;;;;;;6.63;70.05;95820.56;5052318;28;20622;-65
2020/12/23 06:29:47;;;;;;;84.78;43.28;;;;;;;6.69;70.17;95814.53;5050957;28;20670;-63
2020/12/23 06:32:21;;;;;;;85.35;43.55;;;;;;;6.45;71.02;95817.84;5051735;28;20708;-62
2020/12/23 06:34:58;;;;;;;81.28;43.58;;;;;;;6.55;70.48;95815.56;5051249;28;20677;-62
2020/12/23 06:37:28;;;;;;;85.15;43.20;;;;;;;6.69;70.03;95824.94;5052275;28;20192;-63
2020/12/23 06:39:55;;;;;;;82.43;43.05;;;;;;;6.66;69.47;95816.75;5051184;28;20272;-64
2020/12/23 06:42:24;;;;;;;79.90;42.83;;;;;;;6.72;71.31;95823.72;5052070;28;20185;-65
2020/12/23 06:44:50;;;;;;;88.68;44.72;;;;;;;6.72;70.15;95811.50;5051284;28;20640;-71
2020/12/23 06:47:17;;;;;;;110.30;59.28;;;;;;;6.72;70.18;95821.91;5051253;28;20196;-65
2020/12/23 06:49:52;;;;;;;86.18;43.15;;;;;;;6.82;69.81;95817.06;5050594;28;20291;-61
2020/12/23 06:52:21;;;;;;;82.90;41.85;;;;;;;6.86;69.59;95812.22;5047028;28;20342;-63
2020/12/23 06:54:55;;;;;;;83.55;43.38;;;;;;;6.94;69.58;95820.59;5048939;28;20224;-63
2020/12/23 06:57:34;;;;;;;81.97;41.55;;;;;;;7.03;69.72;95827.13;5051305;28;20207;-66
2020/12/23 07:00:01;;;;;;;83.60;41.40;;;;;;;7.01;69.65;95831.75;5052710;28;20204;-66
2020/12/23 07:02:28;;;;;;;77.20;43.13;;;;;;;6.99;69.61;95828.56;5049632;28;20193;-66
2020/12/23 07:04:54;;;;;;;88.10;46.08;;;;;;;6.83;69.48;95807.41;5050588;28;20229;-64
2020/12/23 07:07:41;;;;;;;94.32;51.38;;;;;;;6.94;69.46;95836.22;5050751;28;20208;-69
2020/12/23 07:10:22;;;;;;;94.82;52.65;;;;;;;6.89;70.02;95845.66;5050336;28;20203;-65
2020/12/23 07:12:57;;;;;;;101.15;54.63;;;;;;;7.02;69.12;95843.00;5050538;28;20204;-70
2020/12/23 07:15:26;;;;;;;109.18;56.60;;;;;;;7.01;69.48;95857.81;5050277;28;20212;-63
2020/12/23 07:17:53;;;;;;;101.88;54.38;;;;;;;7.07;69.23;95850.97;5049823;28;20204;-66
2020/12/23 07:20:24;;;;;;;111.82;58.30;;;;;;;7.06;69.23;95850.16;5050043;28;20208;-62
2020/12/23 07:22:52;;;;;;;101.90;54.13;;;;;;;6.95;69.42;95848.22;5050457;28;20197;-64
2020/12/23 07:25:25;;;;;;;153.93;93.20;;;;;;;7.15;69.80;95848.13;5050078;28;20203;-62
2020/12/23 07:27:56;;;;;;;99.93;54.53;;;;;;;7.37;69.69;95851.16;5051156;28;20254;-66
2020/12/23 07:30:24;;;;;;;94.22;50.00;;;;;;;7.40;68.54;95840.31;5049133;28;20223;-61
2020/12/23 07:33:02;;;;;;;88.50;46.53;;;;;;;7.43;68.69;95845.09;5049610;28;20284;-61
2020/12/23 07:35:29;;;;;;;94.72;48.88;;;;;;;7.48;67.63;95850.50;5049768;28;20254;-61
2020/12/23 07:38:02;;;;;;;84.45;46.50;;;;;;;7.66;67.70;95843.53;5050142;28;20208;-62
2020/12/23 07:40:30;;;;;;;84.45;46.05;;;;;;;7.75;66.89;95847.44;5049592;28;20655;-62
2020/12/23 07:42:57;;;;;;;90.57;49.38;;;;;;;7.82;67.04;95850.00;5048725;28;20225;-61
2020/12/23 07:45:25;;;;;;;88.80;45.85;;;;;;;7.57;67.97;95857.03;5049664;28;20659;-61
2020/12/23 07:47:54;;;;;;;90.75;44.90;;;;;;;7.66;67.22;95835.69;5049663;28;20923;-61
2020/12/23 07:50:21;;;;;;;82.47;45.35;;;;;;;7.60;67.24;95831.31;5049232;28;20262;-63
2020/12/23 07:52:48;;;;;;;85.05;47.22;;;;;;;7.75;66.97;95842.22;5049484;28;20679;-64
2020/12/23 07:55:16;;;;;;;93.10;45.17;;;;;;;7.80;67.41;95841.56;5049133;28;20726;-62
2020/12/23 07:57:43;;;;;;;86.38;45.00;;;;;;;7.77;66.93;95836.78;5049384;28;20261;-61
2020/12/23 08:00:12;;;;;;;92.13;45.17;;;;;;;7.91;67.29;95843.47;5049476;28;20667;-64
2020/12/23 08:02:40;;;;;;;82.37;45.33;;;;;;;8.05;66.43;95844.94;5048968;28;20232;-63
2020/12/23 08:05:09;;;;;;;85.10;45.95;;;;;;;8.10;66.57;95845.13;5048163;28;20549;-63
2020/12/23 08:07:40;;;;;;;81.83;44.60;;;;;;;8.18;66.57;95839.59;5047763;28;20195;-63
2020/12/23 08:10:14;;;;;;;91.65;47.53;;;;;;;8.18;66.69;95850.03;5045648;28;20455;-65
2020/12/23 08:12:50;;;;;;;92.32;49.53;;;;;;;8.30;65.98;95850.94;5048178;28;20215;-63
2020/12/23 08:15:16;;;;;;;91.45;49.30;;;;;;;8.19;66.85;95856.88;5046383;28;20744;-65
2020/12/23 08:17:42;;;;;;;86.97;48.07;;;;;;;8.42;66.63;95843.97;5048039;28;20869;-66
2020/12/23 08:20:13;;;;;;;88.07;47.17;;;;;;;8.38;65.94;95848.03;5047155;28;20609;-64
2020/12/23 08:22:42;;;;;;;84.93;46.43;;;;;;;8.46;68.39;95855.59;5047975;28;20432;-64
2020/12/23 08:25:14;;;;;;;93.03;49.73;;;;;;;8.45;66.93;95847.97;5041447;28;20533;-68
2020/12/23 08:27:43;;;;;;;84.80;46.73;;;;;;;8.65;66.69;95851.94;5048048;28;20521;-67
2020/12/23 08:30:16;;;;;;;88.23;48.77;;;;;;;8.77;66.15;95844.16;5045788;28;20439;-64
2020/12/23 08:33:01;;;;;;;86.05;48.13;;;;;;;8.76;66.38;95845.97;5048871;28;20439;-65
2020/12/23 08:35:42;;;;;;;93.80;50.30;;;;;;;8.79;66.18;95847.34;5044616;28;20215;-66
2020/12/23 08:38:21;;;;;;;90.63;49.77;;;;;;;8.89;66.32;95856.25;5045674;28;20439;-66
2020/12/23 08:40:52;;;;;;;110.67;56.13;;;;;;;8.87;65.32;95860.91;5044233;28;20956;-66
2020/12/23 08:43:23;;;;;;;86.93;48.97;;;;;;;8.67;65.68;95836.84;5047725;28;20466;-65
2020/12/23 08:45:51;;;;;;;106.23;56.83;;;;;;;8.64;65.85;95845.13;5045715;28;20438;-63
2020/12/23 08:48:19;;;;;;;105.30;55.90;;;;;;;8.75;65.99;95835.72;5047620;28;20493;-64
2020/12/23 08:51:03;;;;;;;93.37;51.87;;;;;;;8.73;65.12;95822.09;5047197;28;20562;-62
2020/12/23 08:53:36;;;;;;;88.50;49.10;;;;;;;9.11;64.75;95825.97;5048290;28;20443;-64
2020/12/23 08:56:31;;;;;;;86.87;46.70;;;;;;;9.38;64.71;95818.53;5048384;28;20447;-64
2020/12/23 08:58:58;;;;;;;76.80;45.40;;;;;;;10.14;63.37;95808.78;5047892;28;20481;-63
2020/12/23 09:01:26;;;;;;;75.27;42.50;;;;;;;10.06;62.32;95803.06;5048183;28;20968;-66
2020/12/23 09:04:04;;;;;;;80.47;44.13;;;;;;;10.09;61.37;95794.81;5048584;28;20447;-65
2020/12/23 09:06:32;;;;;;;76.73;44.17;;;;;;;9.91;61.05;95768.69;5048605;28;20539;-64
2020/12/23 09:09:36;;;;;;;83.67;45.40;;;;;;;10.01;61.74;95793.31;5048010;28;20480;-66
2020/12/23 09:12:04;;;;;;;78.00;45.60;;;;;;;10.05;62.07;95783.16;5046601;28;20608;-63
2020/12/23 09:14:38;;;;;;;82.67;45.20;;;;;;;10.05;61.89;95785.78;5046780;28;20431;-66
2020/12/23 09:17:09;;;;;;;85.93;47.67;;;;;;;10.09;62.03;95777.25;5048052;28;20588;-66
2020/12/23 09:19:42;;;;;;;173.33;114.13;;;;;;;10.02;62.12;95767.88;5047864;28;20549;-68
2020/12/23 09:22:10;;;;;;;138.97;87.73;;;;;;;10.60;61.46;95781.66;5048658;28;20431;-63
2020/12/23 09:24:36;;;;;;;82.23;47.30;;;;;;;10.83;60.41;95772.91;5047835;28;21309;-63
2020/12/23 09:27:23;;;;;;;83.80;46.20;;;;;;;11.22;59.61;95780.69;5048468;28;21265;-68
2020/12/23 09:29:52;;;;;;;78.47;46.33;;;;;;;11.29;59.61;95777.13;5047880;28;20831;-67
2020/12/23 09:32:19;;;;;;;80.73;45.47;;;;;;;11.15;59.14;95777.41;5048174;28;20565;-69
2020/12/23 09:35:17;;;;;;;84.40;46.00;;;;;;;10.99;59.73;95772.16;5047768;28;20478;-66
2020/12/23 09:37:48;;;;;;;76.60;44.97;;;;;;;10.96;60.33;95773.44;5048533;28;20941;-65
2020/12/23 09:40:16;;;;;;;78.73;43.60;;;;;;;10.97;60.11;95769.78;5047867;28;20442;-66
2020/12/23 09:42:43;;;;;;;72.63;42.33;;;;;;;10.90;60.05;95763.88;5048190;28;21214;-66
2020/12/23 09:45:09;;;;;;;85.10;43.60;;;;;;;10.88;60.44;95760.69;5047817;28;20419;-68
2020/12/23 09:47:43;;;;;;;121.43;72.97;;;;;;;11.10;61.46;95763.44;5048678;28;20439;-65
2020/12/23 09:50:10;;;;;;;132.57;83.97;;;;;;;11.58;60.39;95745.31;5047547;28;20528;-65
2020/12/23 09:52:37;;;;;;;70.60;40.23;;;;;;;12.39;58.40;95741.91;5048002;28;20561;-63
2020/12/23 09:55:07;;;;;;;68.53;40.43;;;;;;;13.25;56.09;95742.81;5047653;28;20471;-67
2020/12/23 09:57:35;;;;;;;65.70;39.80;;;;;;;13.59;54.02;95730.94;5048020;28;20467;-65
2020/12/23 10:00:05;;;;;;;78.80;38.00;;;;;;;13.66;53.84;95731.53;5047856;28;20451;-66
2020/12/23 10:02:37;;;;;;;66.17;38.63;;;;;;;13.78;53.77;95709.22;5047953;28;20943;-65
2020/12/23 10:05:04;;;;;;;64.30;38.63;;;;;;;13.42;53.42;95730.28;5053145;28;20860;-68
2020/12/23 10:07:30;;;;;;;63.80;37.93;;;;;;;13.04;54.54;95718.97;5047812;28;20431;-65
2020/12/23 10:09:57;;;;;;;47.67;28.63;;;;;;;12.80;54.42;95712.38;5061522;28;20443;-68
2020/12/23 10:12:23;;;;;;;51.57;30.17;;;;;;;12.67;55.21;95718.03;5046861;28;20463;-68
2020/12/23 10:14:50;;;;;;;37.60;21.17;;;;;;;12.41;55.78;95724.06;5043618;28;20483;-66
2020/12/23 10:17:18;;;;;;;53.30;26.27;;;;;;;12.12;56.41;95720.03;5046766;28;20439;-67
2020/12/23 10:19:45;;;;;;;71.53;39.60;;;;;;;12.09;56.54;95712.66;5046118;28;20554;-65
2020/12/23 10:22:11;;;;;;;70.37;41.67;;;;;;;11.89;57.23;95713.22;5047355;28;20443;-65
2020/12/23 10:24:38;;;;;;;75.70;41.43;;;;;;;11.81;57.38;95707.56;5046487;28;20470;-66
2020/12/23 10:27:04;;;;;;;77.97;42.57;;;;;;;11.64;60.26;95707.56;5050613;28;20454;-68
2020/12/23 10:29:31;;;;;;;35.40;17.33;;;;;;;12.22;57.92;95702.56;5050266;28;20522;-65
2020/12/23 10:31:58;;;;;;;51.93;26.73;;;;;;;12.32;58.16;95688.75;5049866;28;20490;-65
2020/12/23 10:34:24;;;;;;;33.47;19.93;;;;;;;12.38;56.93;95692.22;5049445;28;20466;-66
2020/12/23 10:36:51;;;;;;;21.43;12.40;;;;;;;12.47;55.91;95683.66;5051788;28;20528;-63
2020/12/23 10:39:18;;;;;;;38.10;22.73;;;;;;;12.44;55.14;95670.22;5050733;28;20827;-68
2020/12/23 10:41:45;;;;;;;25.63;14.13;;;;;;;12.62;54.86;95678.56;5050953;28;20802;-63
2020/12/23 10:44:12;;;;;;;81.70;51.93;;;;;;;12.76;54.28;95674.47;5051378;28;20530;-67
2020/12/23 10:46:39;;;;;;;41.90;28.80;;;;;;;12.71;53.69;95677.06;5051072;28;20450;-70
2020/12/23 10:49:06;;;;;;;8.73;4.73;;;;;;;12.43;53.72;95658.91;5049766;28;21178;-63
2020/12/23 10:51:35;;;;;;;9.87;5.77;;;;;;;12.23;54.22;95648.19;5049720;28;20533;-70
2020/12/23 10:54:01;;;;;;;8.87;5.47;;;;;;;12.99;53.33;95674.13;5050372;28;20502;-66
2020/12/23 10:56:28;;;;;;;10.43;5.37;;;;;;;12.77;53.27;95673.41;5049553;28;20443;-64
2020/12/23 10:58:55;;;;;;;10.50;6.03;;;;;;;12.84;53.15;95671.41;5049276;28;20447;-67
2020/12/23 11:01:21;;;;;;;13.10;6.03;;;;;;;13.14;53.39;95673.50;5049867;28;20427;-62
2020/12/23 11:03:49;;;;;;;10.30;6.23;;;;;;;13.39;52.25;95647.38;5050058;28;20458;-62
2020/12/23 11:06:15;;;;;;;12.53;5.80;;;;;;;13.69;50.92;95667.78;5049920;28;20774;-65
2020/12/23 11:08:43;;;;;;;8.57;5.93;;;;;;;13.47;51.17;95675.03;5049414;28;20525;-68
2020/12/23 11:11:14;;;;;;;9.20;6.13;;;;;;;13.66;51.35;95676.22;5050284;28;20569;-63
2020/12/23 11:13:42;;;;;;;14.10;7.10;;;;;;;13.96;54.30;95673.72;5048767;28;20462;-66
2020/12/23 11:16:16;;;;;;;20.30;16.50;;;;;;;13.72;51.43;95662.03;5051805;28;20442;-68
2020/12/23 11:18:45;;;;;;;27.67;18.93;;;;;;;13.79;50.78;95667.88;5046800;28;20793;-65
2020/12/23 11:21:14;;;;;;;9.00;5.50;;;;;;;13.94;50.09;95655.53;5050688;28;20572;-68
2020/12/23 11:23:44;;;;;;;10.53;6.50;;;;;;;14.21;49.76;95639.56;5047528;28;20446;-67
2020/12/23 11:26:21;;;;;;;9.67;5.10;;;;;;;14.05;49.20;95638.72;5049851;28;20990;-68